^^
Station Historical Data
 
Daily Summary for December 16, 2017 Units:  English    Metric   Both
« Previous Day
Next Day »
Daily Weekly Monthly Yearly Custom
  Current: High: Low: Average:
Temperature: 25 °F 25 °F 15.8 °F 17.8 °F
Dew Point: 18.1 °F 18.3 °F 12.6 °F 14.5 °F
Humidity: 75% 91% 75% 88%
Wind Speed: 3.5mph 6mph 0mph 2.6mph
Wind Gust: 4.5mph 6mph - -
WindNE - - ENE
Pressure: 30 in 30 in 29.9 in -
Precipitation: 0 in      
Historical Graphs
 
 
Tabular Data for December 16, 2017
Time Temperature Dew Point Pressure Wind Wind Speed Wind Gust Humidity Rainfall Rate (Hourly) solar Conditions
00:00 16.2 °F 12.7 °F 29.9 in Calm     86% 0 in WeatherDisplay:10.37 W/m2 OVC
00:02 16.2 °F 12.7 °F 29.9 in Calm     86% 0 in WeatherDisplay:10.37 W/m2 -SN
00:06 16.2 °F 12.7 °F 29.9 in Calm     86% 0 in WeatherDisplay:10.37 W/m2 -SN
00:07 16 °F 12.6 °F 29.9 in Calm     86% 0 in WeatherDisplay:10.37 W/m2 -SN
00:12 16 °F 12.6 °F 29.9 in Calm     86% 0 in WeatherDisplay:10.37 W/m2 -SN
00:13 16 °F 12.6 °F 29.9 in Calm     86% 0 in WeatherDisplay:10.37 W/m2 -SN
00:18 16 °F 13.1 °F 29.9 in Calm     88% 0 in WeatherDisplay:10.37 W/m2 -SN
00:19 16 °F 13.1 °F 29.9 in Calm     88% 0 in WeatherDisplay:10.37 W/m2 -SN
00:24 16 °F 13.1 °F 29.9 in Calm     88% 0 in WeatherDisplay:10.37 W/m2 -SN
00:25 16 °F 13.1 °F 29.9 in Calm     88% 0 in WeatherDisplay:10.37 W/m2 -SN
00:30 16 °F 13.1 °F 29.9 in Calm     88% 0 in WeatherDisplay:10.37 W/m2 -SN
00:32 16 °F 13.1 °F 29.9 in Calm     88% 0 in WeatherDisplay:10.37 W/m2 -SN
00:37 16 °F 13.1 °F 29.9 in Calm   0.4 mph 88% 0 in WeatherDisplay:10.37 W/m2 -SN
00:38 16 °F 13.1 °F 29.9 in Calm   0.4 mph 88% 0 in WeatherDisplay:10.37 W/m2 -SN
00:43 16 °F 13.1 °F 29.9 in Calm   0.4 mph 88% 0 in WeatherDisplay:10.37 W/m2 -SN
00:45 16 °F 13.1 °F 29.9 in NE 1.2 mph 1.2 mph 88% 0 in WeatherDisplay:10.37 W/m2 -SN
00:48 16 °F 13.1 °F 29.9 in NE 1.2 mph 1.2 mph 88% 0 in WeatherDisplay:10.37 W/m2 -SN
00:53 16 °F 13.1 °F 29.9 in NE 2.3 mph 2.3 mph 88% 0 in WeatherDisplay:10.37 W/m2 -SN
00:54 16 °F 13.1 °F 29.9 in NE 2.3 mph 2.3 mph 88% 0 in WeatherDisplay:10.37 W/m2 -SN
00:59 16 °F 13.1 °F 29.9 in ENE 1.2 mph 1.2 mph 88% 0 in WeatherDisplay:10.37 W/m2 -SN
01:00 16 °F 13.1 °F 29.9 in ENE 1.2 mph 1.2 mph 88% 0 in WeatherDisplay:10.37 W/m2 -SN
01:01 16 °F 13.1 °F 29.9 in ENE 1.2 mph 1.2 mph 88% 0 in WeatherDisplay:10.37 W/m2 -SN
01:05 16 °F 13.1 °F 29.9 in ENE 1.2 mph 1.2 mph 88% 0 in WeatherDisplay:10.37 W/m2 -SN
01:08 16 °F 13.6 °F 29.9 in ENE 3.5 mph 3.5 mph 90% 0 in WeatherDisplay:10.37 W/m2 -SN
01:10 16 °F 13.6 °F 29.9 in ENE 3.5 mph 3.5 mph 90% 0 in WeatherDisplay:10.37 W/m2 -SN
01:14 16 °F 13.6 °F 29.9 in Calm   1.6 mph 90% 0 in WeatherDisplay:10.37 W/m2 -SN
01:15 16 °F 13.6 °F 29.9 in ENE 2 mph 2 mph 90% 0 in WeatherDisplay:10.37 W/m2 -SN
01:20 16 °F 13.6 °F 29.9 in ENE 2 mph 2 mph 90% 0 in WeatherDisplay:10.37 W/m2 -SN
01:22 15.8 °F 13.5 °F 29.9 in ENE 2.3 mph 2.3 mph 90% 0 in WeatherDisplay:10.37 W/m2 -SN
01:26 15.8 °F 13.5 °F 29.9 in ENE 2.3 mph 2.3 mph 90% 0 in WeatherDisplay:10.37 W/m2 -SN
01:31 15.8 °F 13.5 °F 29.9 in ENE 2.3 mph 2.3 mph 90% 0 in WeatherDisplay:10.37 W/m2 -SN
01:36 15.8 °F 13.5 °F 29.9 in ENE 1.2 mph 1.2 mph 90% 0 in WeatherDisplay:10.37 W/m2 -SN
01:37 15.8 °F 13.5 °F 29.9 in ENE 1.2 mph 1.2 mph 90% 0 in WeatherDisplay:10.37 W/m2 -SN
01:41 15.8 °F 13.6 °F 29.9 in ENE 1.2 mph 1.2 mph 91% 0 in WeatherDisplay:10.37 W/m2 -SN
01:43 15.8 °F 13.6 °F 29.9 in ENE 2.9 mph 2.9 mph 91% 0 in WeatherDisplay:10.37 W/m2 -SN
01:47 15.8 °F 13.6 °F 29.9 in ENE 1.2 mph 1.8 mph 91% 0 in WeatherDisplay:10.37 W/m2 -SN
01:49 15.8 °F 13.6 °F 29.9 in ENE 1.2 mph 1.8 mph 91% 0 in WeatherDisplay:10.37 W/m2 -SN
01:54 15.8 °F 13.6 °F 29.9 in ENE 2.3 mph 2.3 mph 91% 0 in WeatherDisplay:10.37 W/m2 -SN
01:59 15.8 °F 13.6 °F 29.9 in ENE 2.3 mph 2.3 mph 91% 0 in WeatherDisplay:10.37 W/m2 -SN
02:01 15.8 °F 13.6 °F 29.9 in ENE 2.3 mph 2.3 mph 91% 0 in WeatherDisplay:10.37 W/m2 -SN
02:02 15.8 °F 13.6 °F 29.9 in ENE 2.3 mph 2.3 mph 91% 0 in WeatherDisplay:10.37 W/m2 -SN
02:07 15.8 °F 13.6 °F 29.9 in ENE 1.2 mph 1.2 mph 91% 0 in WeatherDisplay:10.37 W/m2 -SN
02:08 15.8 °F 13.6 °F 29.9 in ENE 2 mph 2 mph 91% 0 in WeatherDisplay:10.37 W/m2 -SN
02:13 15.8 °F 13.6 °F 29.9 in ENE 1.2 mph 1.3 mph 91% 0 in WeatherDisplay:10.37 W/m2 -SN
02:14 15.8 °F 13.6 °F 29.9 in ENE 1.2 mph 1.2 mph 91% 0 in WeatherDisplay:10.37 W/m2 -SN
02:19 15.8 °F 13.6 °F 29.9 in ENE 2.3 mph 2.3 mph 91% 0 in WeatherDisplay:10.37 W/m2 -SN
02:20 15.8 °F 13.6 °F 29.9 in ENE 2.3 mph 2.3 mph 91% 0 in WeatherDisplay:10.37 W/m2 -SN
02:25 15.8 °F 13.6 °F 29.9 in ENE 1.2 mph 1.2 mph 91% 0 in WeatherDisplay:10.37 W/m2 -SN
02:30 16 °F 13.8 °F 29.9 in ENE 2.3 mph 2.3 mph 91% 0 in WeatherDisplay:10.37 W/m2 -SN
02:35 16 °F 13.8 °F 29.9 in ENE 2.3 mph 2.3 mph 91% 0 in WeatherDisplay:10.37 W/m2 -SN
02:36 16 °F 13.8 °F 29.9 in ENE 2 mph 2 mph 91% 0 in WeatherDisplay:10.37 W/m2 -SN
02:37 16 °F 13.8 °F 29.9 in ENE 2.3 mph 2.3 mph 91% 0 in WeatherDisplay:10.37 W/m2 -SN
02:42 16 °F 13.8 °F 29.9 in ENE 2.3 mph 2.3 mph 91% 0 in WeatherDisplay:10.37 W/m2 -SN
02:47 16 °F 13.8 °F 29.9 in ENE 1.2 mph 1.2 mph 91% 0 in WeatherDisplay:10.37 W/m2 -SN
02:48 16 °F 13.8 °F 29.9 in Calm   0.4 mph 91% 0 in WeatherDisplay:10.37 W/m2 -SN
02:53 16.2 °F 14 °F 29.9 in ENE 2.3 mph 2.3 mph 91% 0 in WeatherDisplay:10.37 W/m2 -SN
02:58 16.2 °F 14 °F 29.9 in ENE 2.3 mph 2.3 mph 91% 0 in WeatherDisplay:10.37 W/m2 -SN
03:03 16.2 °F 14 °F 29.9 in ENE 2.9 mph 2.9 mph 91% 0 in WeatherDisplay:10.37 W/m2 -SN
03:05 16.2 °F 14 °F 29.9 in ENE 1 mph 3 mph 91% 0 in WeatherDisplay:10.37 W/m2 -SN
03:10 16.2 °F 14 °F 29.9 in ENE 2.3 mph 2.3 mph 91% 0 in WeatherDisplay:10.37 W/m2 -SN
03:13 16.2 °F 14 °F 29.9 in ENE 3.5 mph 3.5 mph 91% 0 in WeatherDisplay:10.37 W/m2 -SN
03:14 16.2 °F 14 °F 29.9 in ENE 2.3 mph 2.3 mph 91% 0 in WeatherDisplay:10.37 W/m2 -SN
03:19 16.2 °F 14 °F 29.9 in ENE 3.5 mph 3.5 mph 91% 0 in WeatherDisplay:10.37 W/m2 -SN
03:20 16.2 °F 14 °F 29.9 in ENE 3.5 mph 3.5 mph 91% 0 in WeatherDisplay:10.37 W/m2 -SN
03:25 16.2 °F 14 °F 29.9 in ENE 4 mph 4 mph 91% 0 in WeatherDisplay:10.37 W/m2 -SN
03:26 16.2 °F 14 °F 29.9 in ENE 4 mph 4 mph 91% 0 in WeatherDisplay:10.37 W/m2 -SN
03:31 16.2 °F 14 °F 29.9 in ENE 2.3 mph 2.3 mph 91% 0 in WeatherDisplay:10.37 W/m2 -SN
03:32 16.2 °F 14 °F 29.9 in ENE 2.3 mph 2.3 mph 91% 0 in WeatherDisplay:10.37 W/m2 -SN
03:37 16.2 °F 14 °F 29.9 in ENE 3.5 mph 3.5 mph 91% 0 in WeatherDisplay:10.37 W/m2 -SN
03:38 16.2 °F 14 °F 29.9 in ENE 2.3 mph 2.3 mph 91% 0 in WeatherDisplay:10.37 W/m2 -SN
03:43 16.2 °F 14 °F 29.9 in ENE 2.3 mph 2.3 mph 91% 0 in WeatherDisplay:10.37 W/m2 -SN
03:44 16.2 °F 14 °F 29.9 in ENE 3.5 mph 3.5 mph 91% 0 in WeatherDisplay:10.37 W/m2 -SN
03:49 16.2 °F 14 °F 29.9 in ENE 3.5 mph 3.5 mph 91% 0 in WeatherDisplay:10.37 W/m2 -SN
03:50 16.2 °F 14 °F 29.9 in ENE 3.5 mph 3.5 mph 91% 0 in WeatherDisplay:10.37 W/m2 -SN
03:55 16.2 °F 14 °F 29.9 in ENE 3.5 mph 3.5 mph 91% 0 in WeatherDisplay:10.37 W/m2 -SN
03:56 16.2 °F 14 °F 29.9 in ENE 2.3 mph 2.5 mph 91% 0 in WeatherDisplay:10.37 W/m2 -SN
04:00 16.2 °F 14 °F 29.9 in ENE 1.2 mph 1.6 mph 91% 0 in WeatherDisplay:10.37 W/m2 -SN
04:02 16.2 °F 14 °F 29.9 in ENE 3.5 mph 3.5 mph 91% 0 in WeatherDisplay:10.37 W/m2 -SN
04:05 16.2 °F 14 °F 29.9 in ENE 4 mph 4 mph 91% 0 in WeatherDisplay:10.37 W/m2 -SN
04:07 16.2 °F 14 °F 29.9 in ENE 3.5 mph 3.5 mph 91% 0 in WeatherDisplay:10.37 W/m2 -SN
04:12 16.2 °F 14 °F 29.9 in ENE 4.9 mph 4.9 mph 91% 0 in WeatherDisplay:10.37 W/m2 -SN
04:13 16.2 °F 14 °F 29.9 in ENE 4.6 mph 4.6 mph 91% 0 in WeatherDisplay:10.37 W/m2 -SN
04:18 16.2 °F 14 °F 29.9 in ENE 2.3 mph 2.3 mph 91% 0 in WeatherDisplay:10.37 W/m2 -SN
04:19 16.2 °F 14 °F 29.9 in ENE 2.3 mph 2.3 mph 91% 0 in WeatherDisplay:10.37 W/m2 -SN
04:24 16.2 °F 14 °F 29.9 in ENE 3.5 mph 3.5 mph 91% 0 in WeatherDisplay:10.37 W/m2 -SN
04:25 16.2 °F 14 °F 29.9 in ENE 3.5 mph 3.5 mph 91% 0 in WeatherDisplay:10.37 W/m2 -SN
04:26 16.2 °F 14 °F 29.9 in ENE 3.5 mph 3.5 mph 91% 0 in WeatherDisplay:10.37 W/m2 -SN
04:30 16.2 °F 14 °F 29.9 in ENE 3.5 mph 3.5 mph 91% 0 in WeatherDisplay:10.37 W/m2 -SN
04:37 16.2 °F 14 °F 29.9 in ENE 3.5 mph 3.5 mph 91% 0 in WeatherDisplay:10.37 W/m2 -SN
04:38 16.2 °F 14 °F 29.9 in ENE 3.5 mph 3.5 mph 91% 0 in WeatherDisplay:10.37 W/m2 -SN
04:39 16.2 °F 14 °F 29.9 in ENE 2.3 mph 2.5 mph 91% 0 in WeatherDisplay:10.37 W/m2 -SN
04:43 16.2 °F 14 °F 29.9 in ENE 4.6 mph 4.6 mph 91% 0 in WeatherDisplay:10.37 W/m2 -SN
04:46 16.3 °F 14.2 °F 29.9 in ENE 3.5 mph 3.5 mph 91% 0 in WeatherDisplay:10.37 W/m2 -SN
04:48 16.3 °F 14.2 °F 29.9 in ENE 3.5 mph 3.5 mph 91% 0 in WeatherDisplay:10.37 W/m2 -SN
04:53 16.3 °F 14.2 °F 29.9 in ENE 2.3 mph 2.3 mph 91% 0 in WeatherDisplay:10.37 W/m2 -SN
04:54 16.3 °F 14.2 °F 29.9 in ENE 3.5 mph 3.5 mph 91% 0 in WeatherDisplay:10.37 W/m2 -SN
04:59 16.3 °F 14.2 °F 29.9 in ENE 2.9 mph 2.9 mph 91% 0 in WeatherDisplay:10.37 W/m2 -SN
05:00 16.3 °F 14.2 °F 29.9 in ENE 3.5 mph 3.5 mph 91% 0 in WeatherDisplay:10.37 W/m2 -SN
05:05 16.3 °F 14.2 °F 29.9 in ENE 3.5 mph 3.5 mph 91% 0 in WeatherDisplay:10.37 W/m2 -SN
05:07 16.3 °F 14.2 °F 29.9 in ENE 3.5 mph 3.5 mph 91% 0 in WeatherDisplay:10.37 W/m2 -SN
05:08 16.3 °F 14.2 °F 29.9 in ENE 3.5 mph 3.5 mph 91% 0 in WeatherDisplay:10.37 W/m2 -SN
05:13 16.3 °F 14.2 °F 29.9 in ENE 2.3 mph 2.3 mph 91% 0 in WeatherDisplay:10.37 W/m2 -SN
05:15 16.7 °F 14.5 °F 29.9 in ENE 3.5 mph 3.5 mph 91% 0 in WeatherDisplay:10.37 W/m2 -SN
05:17 16.7 °F 14.5 °F 29.9 in ENE 3.5 mph 3.5 mph 91% 0 in WeatherDisplay:10.37 W/m2 -SN
05:22 16.7 °F 14.5 °F 29.9 in ENE 3.5 mph 3.5 mph 91% 0 in WeatherDisplay:10.37 W/m2 -SN
05:23 16.7 °F 14.5 °F 29.9 in ENE 2.3 mph 2.3 mph 91% 0 in WeatherDisplay:10.37 W/m2 -SN
05:28 16.7 °F 14.5 °F 29.9 in ENE 3.5 mph 3.5 mph 91% 0 in WeatherDisplay:10.37 W/m2 -SN
05:33 16.9 °F 14.7 °F 29.9 in ENE 2.3 mph 2.3 mph 91% 0 in WeatherDisplay:10.37 W/m2 -SN
05:38 16.9 °F 14.7 °F 29.9 in ENE 3.5 mph 3.5 mph 91% 0 in WeatherDisplay:10.37 W/m2 -SN
05:39 16.9 °F 14.7 °F 29.9 in ENE 3.5 mph 3.5 mph 91% 0 in WeatherDisplay:10.37 W/m2 -SN
05:44 16.9 °F 14.7 °F 29.9 in ENE 2.3 mph 2.3 mph 91% 0 in WeatherDisplay:10.37 W/m2 -SN
05:46 16.9 °F 14.7 °F 29.9 in ENE 2.3 mph 2.3 mph 91% 0 in WeatherDisplay:10.37 W/m2 -SN
05:50 17.1 °F 14.9 °F 29.9 in ENE 3.5 mph 3.5 mph 91% 0 in WeatherDisplay:10.37 W/m2 -SN
05:51 17.1 °F 14.9 °F 29.9 in ENE 3.5 mph 3.5 mph 91% 0 in WeatherDisplay:10.37 W/m2 -SN
05:56 17.1 °F 14.9 °F 29.9 in ENE 3.5 mph 3.5 mph 91% 0 in WeatherDisplay:10.37 W/m2 -SN
05:57 17.1 °F 14.9 °F 29.9 in ENE 3.5 mph 3.5 mph 91% 0 in WeatherDisplay:10.37 W/m2 -SN
05:58 17.1 °F 14.9 °F 29.9 in ENE 3.5 mph 3.5 mph 91% 0 in WeatherDisplay:10.37 W/m2 -SN
06:02 17.1 °F 14.9 °F 29.9 in ENE 3.5 mph 3.5 mph 91% 0 in WeatherDisplay:10.37 W/m2 OVC
06:07 17.1 °F 14.9 °F 29.9 in ENE 2.3 mph 2.3 mph 91% 0 in WeatherDisplay:10.37 W/m2 OVC
06:08 17.1 °F 14.9 °F 29.9 in ENE 2.3 mph 2.3 mph 91% 0 in WeatherDisplay:10.37 W/m2 OVC
06:09 17.1 °F 14.9 °F 29.9 in ENE 2.3 mph 2.3 mph 91% 0 in WeatherDisplay:10.37 W/m2 OVC
06:14 17.1 °F 14.9 °F 29.9 in ENE 3.5 mph 3.5 mph 91% 0 in WeatherDisplay:10.37 W/m2 OVC
06:16 17.2 °F 15.1 °F 29.9 in ENE 3.5 mph 3.5 mph 91% 0 in WeatherDisplay:10.37 W/m2 OVC
06:19 17.2 °F 15.1 °F 29.9 in ENE 2.3 mph 2.5 mph 91% 0 in WeatherDisplay:10.37 W/m2 OVC
06:23 17.2 °F 15.1 °F 29.9 in ENE 3.5 mph 3.5 mph 91% 0 in WeatherDisplay:10.37 W/m2 OVC
06:28 17.2 °F 14.7 °F 30 in ENE 2.3 mph 2.3 mph 90% 0 in WeatherDisplay:10.37 W/m2 OVC
06:33 17.2 °F 14.7 °F 30 in ENE 2.3 mph 2.5 mph 90% 0 in WeatherDisplay:10.37 W/m2 OVC
06:34 17.2 °F 14.7 °F 30 in ENE 2.3 mph 2.5 mph 90% 0 in WeatherDisplay:10.37 W/m2 OVC
06:35 17.2 °F 14.7 °F 30 in ENE 2.9 mph 2.9 mph 90% 0 in WeatherDisplay:10.37 W/m2 OVC
06:40 17.2 °F 14.7 °F 30 in ENE 3.5 mph 3.5 mph 90% 0 in WeatherDisplay:10.37 W/m2 OVC
06:45 17.2 °F 14.7 °F 30 in ENE 4 mph 4 mph 90% 0 in WeatherDisplay:10.37 W/m2 OVC
06:46 17.2 °F 14.7 °F 30 in ENE 4 mph 4 mph 90% 0 in WeatherDisplay:10.37 W/m2 OVC
06:51 17.4 °F 14.5 °F 30 in ENE 3.5 mph 3.5 mph 88% 0 in WeatherDisplay:10.37 W/m2 OVC
06:52 17.4 °F 14.5 °F 30 in ENE 4 mph 4 mph 88% 0 in WeatherDisplay:10.37 W/m2 OVC
06:57 17.4 °F 14.5 °F 30 in ENE 2.3 mph 2.3 mph 88% 0 in WeatherDisplay:10.37 W/m2 OVC
06:59 17.4 °F 14.5 °F 30 in ENE 3.5 mph 3.5 mph 88% 0 in WeatherDisplay:10.37 W/m2 OVC
07:04 17.4 °F 14.5 °F 30 in ENE 3.5 mph 3.5 mph 88% 0 in WeatherDisplay:10.37 W/m2 OVC
07:06 17.4 °F 14.5 °F 30 in ENE 2.3 mph 2.3 mph 88% 0 in WeatherDisplay:10.37 W/m2 OVC
07:11 17.4 °F 13.8 °F 30 in ENE 4.6 mph 4.6 mph 86% 0 in WeatherDisplay:10.37 W/m2 OVC
07:12 17.4 °F 13.8 °F 30 in ENE 3.5 mph 3.5 mph 86% 0 in WeatherDisplay:10.37 W/m2 OVC
07:13 17.4 °F 13.8 °F 30 in ENE 2.3 mph 2.3 mph 86% 0 in WeatherDisplay:10.37 W/m2 OVC
07:18 17.4 °F 13.8 °F 30 in ENE 2.9 mph 2.9 mph 86% 0 in WeatherDisplay:10.37 W/m2 OVC
07:19 17.4 °F 13.8 °F 30 in ENE 3.5 mph 3.5 mph 86% 0 in WeatherDisplay:10.37 W/m2 OVC
07:24 17.4 °F 13.8 °F 30 in ENE 2 mph 2 mph 86% 0 in WeatherDisplay:10.37 W/m2 OVC
07:29 17.8 °F 14.4 °F 30 in ENE 3.5 mph 3.5 mph 86% 0 in WeatherDisplay:10.37 W/m2 OVC
07:30 17.8 °F 14.4 °F 30 in ENE 2.3 mph 2.3 mph 86% 0 in WeatherDisplay:10.37 W/m2 OVC
07:31 17.8 °F 14.4 °F 30 in ENE 2.3 mph 2.3 mph 86% 0 in WeatherDisplay:10.37 W/m2 OVC
07:36 17.8 °F 14.4 °F 30 in ENE 2.3 mph 2.3 mph 86% 0 in WeatherDisplay:10.37 W/m2 OVC
07:41 18 °F 14.5 °F 30 in ENE 1.2 mph 1.8 mph 86% 0 in WeatherDisplay:10.37 W/m2 OVC
07:42 18 °F 14.5 °F 30 in ENE 1.2 mph 1.8 mph 86% 0 in WeatherDisplay:10.37 W/m2 OVC
07:44 18 °F 14.5 °F 30 in ENE 1.2 mph 1.8 mph 86% 0 in WeatherDisplay:10.37 W/m2 OVC
07:48 18 °F 14.5 °F 30 in Calm     86% 0 in WeatherDisplay:10.37 W/m2 OVC
07:49 18 °F 14.5 °F 30 in Calm     86% 0 in WeatherDisplay:10.37 W/m2 OVC
07:53 18.1 °F 14.7 °F 30 in ENE 2.3 mph 2.3 mph 86% 0 in WeatherDisplay:10.37 W/m2 OVC
07:55 18.1 °F 14.7 °F 30 in ENE 2.3 mph 2.3 mph 86% 0 in WeatherDisplay:10.37 W/m2 OVC
08:00 18.1 °F 14.7 °F 30 in ENE 3.5 mph 3.5 mph 86% 0 in WeatherDisplay:10.37 W/m2 OVC
08:02 18.1 °F 14.7 °F 30 in ENE 3.5 mph 3.5 mph 86% 0 in WeatherDisplay:10.37 W/m2 OVC
08:07 18.5 °F 14.7 °F 30 in ENE 2.3 mph 2.3 mph 85% 0 in WeatherDisplay:10.37 W/m2 OVC
08:08 18.7 °F 14.9 °F 30 in ENE 3.5 mph 3.5 mph 85% 0 in WeatherDisplay:10.37 W/m2 OVC
08:13 18.9 °F 15.1 °F 30 in ENE 2.3 mph 2.3 mph 85% 0 in WeatherDisplay:10.37 W/m2 OVC
08:14 18.9 °F 15.1 °F 30 in ENE 3.5 mph 3.5 mph 85% 0 in WeatherDisplay:10.37 W/m2 OVC
08:15 18.9 °F 15.1 °F 30 in ENE 3.5 mph 3.5 mph 85% 0 in WeatherDisplay:10.37 W/m2 OVC
08:20 19.2 °F 15.4 °F 30 in ENE 1.2 mph 2 mph 85% 0 in WeatherDisplay:10.37 W/m2 OVC
08:26 19.2 °F 14.9 °F 30 in ENE 3.5 mph 3.5 mph 83% 0 in WeatherDisplay:10.37 W/m2 OVC
08:31 19.2 °F 14.9 °F 30 in ENE 2.3 mph 2.3 mph 83% 0 in WeatherDisplay:10.37 W/m2 OVC
08:32 19.2 °F 14.9 °F 30 in ENE 2.3 mph 2.3 mph 83% 0 in WeatherDisplay:10.37 W/m2 OVC
08:37 19.8 °F 15.4 °F 30 in NE 3.5 mph 3.5 mph 83% 0 in WeatherDisplay:10.37 W/m2 OVC
08:39 19.8 °F 15.4 °F 30 in NE 2.3 mph 2.5 mph 83% 0 in WeatherDisplay:10.37 W/m2 OVC
08:41 19.8 °F 15.4 °F 30 in NNE 3.5 mph 3.5 mph 83% 0 in WeatherDisplay:10.37 W/m2 OVC
08:44 19.9 °F 15.6 °F 30 in NNE 3.5 mph 3.5 mph 83% 0 in WeatherDisplay:10.37 W/m2 OVC
08:46 19.9 °F 15.6 °F 30 in NNE 3.5 mph 3.5 mph 83% 0 in WeatherDisplay:10.37 W/m2 OVC
08:49 20.1 °F 15.8 °F 30 in NNE 3.5 mph 3.5 mph 83% 0 in WeatherDisplay:10.37 W/m2 OVC
08:54 20.5 °F 15.6 °F 30 in NE 5.8 mph 5.8 mph 81% 0 in WeatherDisplay:10.37 W/m2 OVC
08:55 20.5 °F 15.6 °F 30 in ENE 4 mph 4 mph 81% 0 in WeatherDisplay:10.37 W/m2 OVC
08:58 20.7 °F 15.8 °F 30 in ENE 2.3 mph 2.7 mph 81% 0 in WeatherDisplay:10.37 W/m2 OVC
09:00 20.7 °F 15.8 °F 30 in NE 3.5 mph 3.5 mph 81% 0 in WeatherDisplay:10.37 W/m2 OVC
09:05 20.7 °F 15.8 °F 30 in NW 3.5 mph 3.5 mph 81% 0 in WeatherDisplay:10.37 W/m2 OVC
09:10 20.8 °F 16 °F 30 in NNE 3.5 mph 3.5 mph 81% 0 in WeatherDisplay:10.37 W/m2 OVC
09:11 20.8 °F 16 °F 30 in ENE 3.5 mph 3.5 mph 81% 0 in WeatherDisplay:10.37 W/m2 OVC
09:16 21.2 °F 16.3 °F 30 in ENE 3.5 mph 3.5 mph 81% 0 in WeatherDisplay:10.37 W/m2 OVC
09:21 21.6 °F 16.5 °F 30 in NNE 4.6 mph 4.6 mph 81% 0 in WeatherDisplay:10.37 W/m2 OVC
09:23 21.6 °F 16.5 °F 30 in North 3.5 mph 3.5 mph 81% 0 in WeatherDisplay:10.37 W/m2 OVC
09:26 21.7 °F 16.9 °F 30 in East 2.3 mph 2.5 mph 81% 0 in WeatherDisplay:10.37 W/m2 OVC
09:31 21.9 °F 17.1 °F 30 in East 2.3 mph 2.3 mph 81% 0 in WeatherDisplay:10.37 W/m2 OVC
09:32 21.9 °F 17.1 °F 30 in East 3.5 mph 3.5 mph 81% 0 in WeatherDisplay:10.37 W/m2 OVC
09:37 22.5 °F 17.2 °F 30 in East 2.3 mph 2.3 mph 80% 0 in WeatherDisplay:10.37 W/m2 OVC
09:40 22.5 °F 17.2 °F 30 in East 2.3 mph 2.3 mph 80% 0 in WeatherDisplay:10.37 W/m2 OVC
09:42 22.5 °F 17.2 °F 30 in East 2.3 mph 2.3 mph 80% 0 in WeatherDisplay:10.37 W/m2 OVC
09:45 22.6 °F 17.1 °F 30 in East 2 mph 3 mph 79% 0 in WeatherDisplay:10.37 W/m2 OVC
09:49 22.8 °F 17.2 °F 30 in East 3.5 mph 3.5 mph 79% 0 in WeatherDisplay:10.37 W/m2 OVC
09:51 22.8 °F 17.2 °F 30 in East 4 mph 4 mph 79% 0 in WeatherDisplay:10.37 W/m2 OVC
09:56 23.4 °F 17.8 °F 30 in East 3.5 mph 3.5 mph 79% 0 in WeatherDisplay:10.37 W/m2 OVC
09:58 23.4 °F 17.8 °F 30 in East 4.9 mph 4.9 mph 79% 0 in WeatherDisplay:10.37 W/m2 OVC
10:00 23.4 °F 17.4 °F 30 in NE 4.6 mph 4.6 mph 78% 0 in WeatherDisplay:10.37 W/m2 OVC
10:05 23.4 °F 17.4 °F 30 in ENE 3.5 mph 3.5 mph 78% 0 in WeatherDisplay:10.37 W/m2 OVC
10:07 23.7 °F 18 °F 30 in ENE 2.3 mph 2.3 mph 78% 0 in WeatherDisplay:10.37 W/m2 OVC
10:11 24.3 °F 18.3 °F 30 in NE 3.5 mph 3.5 mph 78% 0 in WeatherDisplay:10.37 W/m2 OVC
10:16 24.4 °F 18 °F 30 in ENE 2.3 mph 2.5 mph 76% 0 in WeatherDisplay:10.37 W/m2 OVC
10:17 24.4 °F 18 °F 30 in ENE 2.3 mph 2.5 mph 76% 0 in WeatherDisplay:10.37 W/m2 OVC
10:20 24.8 °F 18.3 °F 30 in ENE 4 mph 4 mph 76% 0 in WeatherDisplay:10.37 W/m2 OVC
10:23 24.8 °F 18.3 °F 30 in ENE 3.5 mph 3.5 mph 76% 0 in WeatherDisplay:10.37 W/m2 OVC
10:29 25 °F 18.1 °F 30 in ENE 4.6 mph 4.6 mph 75% 0 in WeatherDisplay:10.37 W/m2 OVC
10:31 25 °F 18.1 °F 30 in ENE 3.5 mph 3.5 mph 75% 0 in WeatherDisplay:10.37 W/m2 OVC
10:32 25 °F 18.1 °F 30 in NNE 6 mph 6 mph 75% 0 in WeatherDisplay:10.37 W/m2 OVC
10:36 25 °F 18.1 °F 30 in NE 3.5 mph 4.5 mph 75% 0 in WeatherDisplay:10.37 W/m2 OVC
Juneau County Weather
Compliments of Weather Underground - 3.75 mb